sensor_id;sensor_type;location;lat;lon;timestamp;P1;durP1;ratioP1;P2;durP2;ratioP2
69047;SDS011;56119;50.118;8.642;2024-02-23T00:02:18;1.52;;;0.70;;
69047;SDS011;56119;50.118;8.642;2024-02-23T00:04:44;2.00;;;0.73;;
69047;SDS011;56119;50.118;8.642;2024-02-23T00:07:10;6.60;;;0.90;;
69047;SDS011;56119;50.118;8.642;2024-02-23T00:09:36;4.63;;;0.70;;
69047;SDS011;56119;50.118;8.642;2024-02-23T00:12:02;2.33;;;0.50;;
69047;SDS011;56119;50.118;8.642;2024-02-23T00:14:29;2.88;;;0.90;;
69047;SDS011;56119;50.118;8.642;2024-02-23T00:16:56;4.30;;;0.95;;
69047;SDS011;56119;50.118;8.642;2024-02-23T00:19:26;2.40;;;0.70;;
69047;SDS011;56119;50.118;8.642;2024-02-23T00:21:52;2.60;;;0.73;;
69047;SDS011;56119;50.118;8.642;2024-02-23T00:24:18;2.92;;;1.35;;
69047;SDS011;56119;50.118;8.642;2024-02-23T00:26:46;3.03;;;0.85;;
69047;SDS011;56119;50.118;8.642;2024-02-23T00:29:12;2.33;;;0.98;;
69047;SDS011;56119;50.118;8.642;2024-02-23T00:31:38;1.88;;;0.60;;
69047;SDS011;56119;50.118;8.642;2024-02-23T00:34:08;1.38;;;0.55;;
69047;SDS011;56119;50.118;8.642;2024-02-23T00:36:41;3.03;;;0.70;;
69047;SDS011;56119;50.118;8.642;2024-02-23T00:39:09;3.13;;;0.75;;
69047;SDS011;56119;50.118;8.642;2024-02-23T00:41:35;2.45;;;0.70;;
69047;SDS011;56119;50.118;8.642;2024-02-23T00:44:04;4.45;;;0.63;;
69047;SDS011;56119;50.118;8.642;2024-02-23T00:46:31;4.05;;;0.82;;
69047;SDS011;56119;50.118;8.642;2024-02-23T00:48:57;3.88;;;0.88;;
69047;SDS011;56119;50.118;8.642;2024-02-23T00:51:23;3.40;;;1.20;;
69047;SDS011;56119;50.118;8.642;2024-02-23T00:53:49;1.65;;;0.60;;
69047;SDS011;56119;50.118;8.642;2024-02-23T00:56:15;1.10;;;0.60;;
69047;SDS011;56119;50.118;8.642;2024-02-23T00:58:41;2.17;;;0.60;;
69047;SDS011;56119;50.118;8.642;2024-02-23T01:01:07;5.00;;;0.88;;
69047;SDS011;56119;50.118;8.642;2024-02-23T01:03:33;1.98;;;0.60;;
69047;SDS011;56119;50.118;8.642;2024-02-23T01:05:59;4.10;;;0.90;;
69047;SDS011;56119;50.118;8.642;2024-02-23T01:08:25;2.45;;;0.75;;
69047;SDS011;56119;50.118;8.642;2024-02-23T01:10:51;1.40;;;0.70;;
69047;SDS011;56119;50.118;8.642;2024-02-23T01:13:17;2.45;;;0.80;;
69047;SDS011;56119;50.118;8.642;2024-02-23T01:15:43;4.63;;;0.73;;
69047;SDS011;56119;50.118;8.642;2024-02-23T01:18:10;4.72;;;0.80;;
69047;SDS011;56119;50.118;8.642;2024-02-23T01:20:36;1.75;;;0.75;;
69047;SDS011;56119;50.118;8.642;2024-02-23T01:23:03;5.40;;;0.93;;
69047;SDS011;56119;50.118;8.642;2024-02-23T01:25:29;3.67;;;0.60;;
69047;SDS011;56119;50.118;8.642;2024-02-23T01:27:55;5.95;;;1.05;;
69047;SDS011;56119;50.118;8.642;2024-02-23T01:30:21;3.88;;;0.77;;
69047;SDS011;56119;50.118;8.642;2024-02-23T01:32:47;4.25;;;0.75;;
69047;SDS011;56119;50.118;8.642;2024-02-23T01:35:15;5.78;;;0.93;;
69047;SDS011;56119;50.118;8.642;2024-02-23T01:37:41;3.33;;;0.90;;
69047;SDS011;56119;50.118;8.642;2024-02-23T01:40:08;3.90;;;0.70;;
69047;SDS011;56119;50.118;8.642;2024-02-23T01:42:34;5.88;;;0.70;;
69047;SDS011;56119;50.118;8.642;2024-02-23T01:45:00;2.28;;;0.70;;
69047;SDS011;56119;50.118;8.642;2024-02-23T01:47:27;4.10;;;0.60;;
69047;SDS011;56119;50.118;8.642;2024-02-23T01:49:54;3.28;;;0.45;;
69047;SDS011;56119;50.118;8.642;2024-02-23T01:52:21;1.70;;;0.40;;
69047;SDS011;56119;50.118;8.642;2024-02-23T01:54:47;4.57;;;0.63;;
69047;SDS011;56119;50.118;8.642;2024-02-23T01:57:14;1.83;;;0.50;;
69047;SDS011;56119;50.118;8.642;2024-02-23T01:59:40;2.15;;;0.60;;
69047;SDS011;56119;50.118;8.642;2024-02-23T02:02:06;2.75;;;0.70;;
69047;SDS011;56119;50.118;8.642;2024-02-23T02:04:32;3.83;;;0.70;;
69047;SDS011;56119;50.118;8.642;2024-02-23T02:06:58;2.33;;;0.50;;
69047;SDS011;56119;50.118;8.642;2024-02-23T02:09:25;3.17;;;0.50;;
69047;SDS011;56119;50.118;8.642;2024-02-23T02:11:51;1.38;;;0.50;;
69047;SDS011;56119;50.118;8.642;2024-02-23T02:14:18;1.33;;;0.55;;
69047;SDS011;56119;50.118;8.642;2024-02-23T02:16:44;2.38;;;0.57;;
69047;SDS011;56119;50.118;8.642;2024-02-23T02:19:11;1.73;;;0.50;;
69047;SDS011;56119;50.118;8.642;2024-02-23T02:21:37;3.17;;;0.60;;
69047;SDS011;56119;50.118;8.642;2024-02-23T02:24:03;2.28;;;0.65;;
69047;SDS011;56119;50.118;8.642;2024-02-23T02:26:30;2.42;;;0.82;;
69047;SDS011;56119;50.118;8.642;2024-02-23T02:28:56;2.67;;;0.80;;
69047;SDS011;56119;50.118;8.642;2024-02-23T02:31:22;3.13;;;0.70;;
69047;SDS011;56119;50.118;8.642;2024-02-23T02:33:48;3.40;;;0.70;;
69047;SDS011;56119;50.118;8.642;2024-02-23T02:36:14;2.13;;;0.90;;
69047;SDS011;56119;50.118;8.642;2024-02-23T02:38:40;4.38;;;0.80;;
69047;SDS011;56119;50.118;8.642;2024-02-23T02:41:06;2.35;;;0.70;;
69047;SDS011;56119;50.118;8.642;2024-02-23T02:43:32;3.35;;;1.17;;
69047;SDS011;56119;50.118;8.642;2024-02-23T02:45:58;3.05;;;0.70;;
69047;SDS011;56119;50.118;8.642;2024-02-23T02:48:24;2.42;;;0.80;;
69047;SDS011;56119;50.118;8.642;2024-02-23T02:50:51;0.90;;;0.57;;
69047;SDS011;56119;50.118;8.642;2024-02-23T02:53:17;1.45;;;0.50;;
69047;SDS011;56119;50.118;8.642;2024-02-23T02:55:43;1.33;;;0.70;;
69047;SDS011;56119;50.118;8.642;2024-02-23T02:58:10;2.45;;;0.70;;
69047;SDS011;56119;50.118;8.642;2024-02-23T03:00:37;1.50;;;0.60;;
69047;SDS011;56119;50.118;8.642;2024-02-23T03:03:03;2.03;;;0.50;;
69047;SDS011;56119;50.118;8.642;2024-02-23T03:05:28;2.08;;;0.60;;
69047;SDS011;56119;50.118;8.642;2024-02-23T03:07:54;2.58;;;0.60;;
69047;SDS011;56119;50.118;8.642;2024-02-23T03:10:20;2.53;;;0.60;;
69047;SDS011;56119;50.118;8.642;2024-02-23T03:12:46;2.42;;;0.50;;
69047;SDS011;56119;50.118;8.642;2024-02-23T03:15:12;1.95;;;0.65;;
69047;SDS011;56119;50.118;8.642;2024-02-23T03:17:38;3.20;;;0.50;;
69047;SDS011;56119;50.118;8.642;2024-02-23T03:20:04;2.42;;;0.70;;
69047;SDS011;56119;50.118;8.642;2024-02-23T03:22:34;2.05;;;0.77;;
69047;SDS011;56119;50.118;8.642;2024-02-23T03:25:00;3.67;;;0.70;;
69047;SDS011;56119;50.118;8.642;2024-02-23T03:27:33;3.08;;;0.50;;
69047;SDS011;56119;50.118;8.642;2024-02-23T03:29:59;4.10;;;0.75;;
69047;SDS011;56119;50.118;8.642;2024-02-23T03:32:25;2.90;;;0.70;;
69047;SDS011;56119;50.118;8.642;2024-02-23T03:34:51;3.55;;;0.82;;
69047;SDS011;56119;50.118;8.642;2024-02-23T03:37:17;4.28;;;0.77;;
69047;SDS011;56119;50.118;8.642;2024-02-23T03:39:43;2.90;;;0.68;;
69047;SDS011;56119;50.118;8.642;2024-02-23T03:42:09;2.53;;;0.73;;
69047;SDS011;56119;50.118;8.642;2024-02-23T03:44:35;2.90;;;0.68;;
69047;SDS011;56119;50.118;8.642;2024-02-23T03:47:01;3.55;;;0.70;;
69047;SDS011;56119;50.118;8.642;2024-02-23T03:49:27;3.92;;;0.80;;
69047;SDS011;56119;50.118;8.642;2024-02-23T03:51:52;2.60;;;0.60;;
69047;SDS011;56119;50.118;8.642;2024-02-23T03:54:18;3.90;;;0.70;;
69047;SDS011;56119;50.118;8.642;2024-02-23T03:56:44;3.58;;;0.70;;
69047;SDS011;56119;50.118;8.642;2024-02-23T03:59:11;2.95;;;0.70;;
69047;SDS011;56119;50.118;8.642;2024-02-23T04:01:37;3.65;;;0.77;;
69047;SDS011;56119;50.118;8.642;2024-02-23T04:04:04;4.00;;;0.68;;
69047;SDS011;56119;50.118;8.642;2024-02-23T04:06:30;5.35;;;0.73;;
69047;SDS011;56119;50.118;8.642;2024-02-23T04:08:56;2.38;;;0.80;;
69047;SDS011;56119;50.118;8.642;2024-02-23T04:11:22;5.38;;;0.77;;
69047;SDS011;56119;50.118;8.642;2024-02-23T04:13:48;4.13;;;0.85;;
69047;SDS011;56119;50.118;8.642;2024-02-23T04:16:14;5.28;;;0.80;;
69047;SDS011;56119;50.118;8.642;2024-02-23T04:18:40;3.15;;;0.77;;
69047;SDS011;56119;50.118;8.642;2024-02-23T04:21:06;2.97;;;0.70;;
69047;SDS011;56119;50.118;8.642;2024-02-23T04:23:32;2.10;;;0.88;;
69047;SDS011;56119;50.118;8.642;2024-02-23T04:25:58;5.05;;;0.90;;
69047;SDS011;56119;50.118;8.642;2024-02-23T04:28:24;6.13;;;1.10;;
69047;SDS011;56119;50.118;8.642;2024-02-23T04:30:53;5.20;;;0.90;;
69047;SDS011;56119;50.118;8.642;2024-02-23T04:33:19;3.38;;;1.02;;
69047;SDS011;56119;50.118;8.642;2024-02-23T04:35:44;2.40;;;0.82;;
69047;SDS011;56119;50.118;8.642;2024-02-23T04:38:11;6.82;;;1.00;;
69047;SDS011;56119;50.118;8.642;2024-02-23T04:40:37;4.93;;;0.90;;
69047;SDS011;56119;50.118;8.642;2024-02-23T04:43:02;4.55;;;0.77;;
69047;SDS011;56119;50.118;8.642;2024-02-23T04:45:28;3.05;;;1.17;;
69047;SDS011;56119;50.118;8.642;2024-02-23T04:47:54;4.95;;;1.10;;
69047;SDS011;56119;50.118;8.642;2024-02-23T04:50:20;2.67;;;0.98;;
69047;SDS011;56119;50.118;8.642;2024-02-23T04:52:47;5.72;;;1.38;;
69047;SDS011;56119;50.118;8.642;2024-02-23T04:55:13;4.15;;;1.25;;
69047;SDS011;56119;50.118;8.642;2024-02-23T04:57:39;2.13;;;1.00;;
69047;SDS011;56119;50.118;8.642;2024-02-23T05:00:05;3.72;;;0.90;;
69047;SDS011;56119;50.118;8.642;2024-02-23T05:02:32;4.63;;;1.20;;
69047;SDS011;56119;50.118;8.642;2024-02-23T05:05:01;2.63;;;1.25;;
69047;SDS011;56119;50.118;8.642;2024-02-23T05:07:29;7.45;;;1.40;;
69047;SDS011;56119;50.118;8.642;2024-02-23T05:09:55;5.20;;;1.30;;
69047;SDS011;56119;50.118;8.642;2024-02-23T05:12:21;4.43;;;1.00;;
69047;SDS011;56119;50.118;8.642;2024-02-23T05:14:47;2.33;;;1.10;;
69047;SDS011;56119;50.118;8.642;2024-02-23T05:17:13;5.10;;;1.45;;
69047;SDS011;56119;50.118;8.642;2024-02-23T05:19:39;3.30;;;1.20;;
69047;SDS011;56119;50.118;8.642;2024-02-23T05:22:05;3.90;;;1.05;;
69047;SDS011;56119;50.118;8.642;2024-02-23T05:24:31;3.97;;;1.38;;
69047;SDS011;56119;50.118;8.642;2024-02-23T05:26:57;6.28;;;1.00;;
69047;SDS011;56119;50.118;8.642;2024-02-23T05:29:27;6.32;;;1.27;;
69047;SDS011;56119;50.118;8.642;2024-02-23T05:31:53;4.35;;;1.10;;
69047;SDS011;56119;50.118;8.642;2024-02-23T05:34:19;4.45;;;1.27;;
69047;SDS011;56119;50.118;8.642;2024-02-23T05:36:45;2.58;;;1.10;;
69047;SDS011;56119;50.118;8.642;2024-02-23T05:39:11;3.30;;;1.40;;
69047;SDS011;56119;50.118;8.642;2024-02-23T05:41:38;4.13;;;1.60;;
69047;SDS011;56119;50.118;8.642;2024-02-23T05:44:04;5.68;;;1.77;;
69047;SDS011;56119;50.118;8.642;2024-02-23T05:46:34;4.90;;;1.48;;
69047;SDS011;56119;50.118;8.642;2024-02-23T05:49:00;2.92;;;1.30;;
69047;SDS011;56119;50.118;8.642;2024-02-23T05:51:28;8.18;;;1.50;;
69047;SDS011;56119;50.118;8.642;2024-02-23T05:53:54;4.18;;;1.50;;
69047;SDS011;56119;50.118;8.642;2024-02-23T05:56:20;2.88;;;1.40;;
69047;SDS011;56119;50.118;8.642;2024-02-23T05:58:47;2.97;;;1.45;;
69047;SDS011;56119;50.118;8.642;2024-02-23T06:01:13;4.10;;;1.40;;
69047;SDS011;56119;50.118;8.642;2024-02-23T06:03:38;4.35;;;1.30;;
69047;SDS011;56119;50.118;8.642;2024-02-23T06:06:07;4.65;;;1.85;;
69047;SDS011;56119;50.118;8.642;2024-02-23T06:08:34;5.85;;;2.10;;
69047;SDS011;56119;50.118;8.642;2024-02-23T06:11:00;4.57;;;1.25;;
69047;SDS011;56119;50.118;8.642;2024-02-23T06:13:26;2.70;;;1.15;;
69047;SDS011;56119;50.118;8.642;2024-02-23T06:15:52;3.67;;;1.00;;
69047;SDS011;56119;50.118;8.642;2024-02-23T06:18:18;6.97;;;1.58;;
69047;SDS011;56119;50.118;8.642;2024-02-23T06:20:44;6.07;;;1.60;;
69047;SDS011;56119;50.118;8.642;2024-02-23T06:23:10;4.50;;;1.55;;
69047;SDS011;56119;50.118;8.642;2024-02-23T06:25:36;3.78;;;1.42;;
69047;SDS011;56119;50.118;8.642;2024-02-23T06:28:02;3.72;;;1.45;;
69047;SDS011;56119;50.118;8.642;2024-02-23T06:30:28;5.18;;;1.55;;
69047;SDS011;56119;50.118;8.642;2024-02-23T06:32:54;3.83;;;1.00;;
69047;SDS011;56119;50.118;8.642;2024-02-23T06:35:20;4.57;;;1.27;;
69047;SDS011;56119;50.118;8.642;2024-02-23T06:37:47;4.82;;;1.30;;
69047;SDS011;56119;50.118;8.642;2024-02-23T06:40:13;5.50;;;1.40;;
69047;SDS011;56119;50.118;8.642;2024-02-23T06:42:39;4.90;;;1.13;;
69047;SDS011;56119;50.118;8.642;2024-02-23T06:45:05;5.20;;;1.02;;
69047;SDS011;56119;50.118;8.642;2024-02-23T06:47:31;5.57;;;1.20;;
69047;SDS011;56119;50.118;8.642;2024-02-23T06:49:57;7.90;;;1.10;;
69047;SDS011;56119;50.118;8.642;2024-02-23T06:52:23;7.55;;;1.05;;
69047;SDS011;56119;50.118;8.642;2024-02-23T06:54:51;4.45;;;1.08;;
69047;SDS011;56119;50.118;8.642;2024-02-23T06:57:17;4.35;;;1.10;;
69047;SDS011;56119;50.118;8.642;2024-02-23T06:59:43;2.40;;;0.95;;
69047;SDS011;56119;50.118;8.642;2024-02-23T07:02:09;4.57;;;1.30;;
69047;SDS011;56119;50.118;8.642;2024-02-23T07:04:35;5.90;;;1.25;;
69047;SDS011;56119;50.118;8.642;2024-02-23T07:07:01;3.03;;;1.10;;
69047;SDS011;56119;50.118;8.642;2024-02-23T07:09:33;9.43;;;1.30;;
69047;SDS011;56119;50.118;8.642;2024-02-23T07:11:59;3.80;;;1.20;;
69047;SDS011;56119;50.118;8.642;2024-02-23T07:14:26;5.50;;;1.40;;
69047;SDS011;56119;50.118;8.642;2024-02-23T07:16:52;4.40;;;1.15;;
69047;SDS011;56119;50.118;8.642;2024-02-23T07:19:18;6.93;;;1.40;;
69047;SDS011;56119;50.118;8.642;2024-02-23T07:21:45;4.10;;;1.10;;
69047;SDS011;56119;50.118;8.642;2024-02-23T07:24:11;4.00;;;1.08;;
69047;SDS011;56119;50.118;8.642;2024-02-23T07:26:37;6.43;;;1.17;;
69047;SDS011;56119;50.118;8.642;2024-02-23T07:29:03;3.50;;;1.58;;
69047;SDS011;56119;50.118;8.642;2024-02-23T07:31:29;3.22;;;1.20;;
69047;SDS011;56119;50.118;8.642;2024-02-23T07:33:55;7.10;;;1.48;;
69047;SDS011;56119;50.118;8.642;2024-02-23T07:36:21;4.10;;;1.23;;
69047;SDS011;56119;50.118;8.642;2024-02-23T07:38:47;5.18;;;1.20;;
69047;SDS011;56119;50.118;8.642;2024-02-23T07:41:14;6.70;;;1.20;;
69047;SDS011;56119;50.118;8.642;2024-02-23T07:43:40;4.53;;;1.33;;
69047;SDS011;56119;50.118;8.642;2024-02-23T07:46:06;5.65;;;1.00;;
69047;SDS011;56119;50.118;8.642;2024-02-23T07:48:34;4.45;;;1.30;;
69047;SDS011;56119;50.118;8.642;2024-02-23T07:51:00;6.28;;;1.30;;
69047;SDS011;56119;50.118;8.642;2024-02-23T07:53:27;6.70;;;1.10;;
69047;SDS011;56119;50.118;8.642;2024-02-23T07:55:53;8.65;;;1.10;;
69047;SDS011;56119;50.118;8.642;2024-02-23T07:58:19;6.97;;;1.35;;
69047;SDS011;56119;50.118;8.642;2024-02-23T08:00:46;6.93;;;1.27;;
69047;SDS011;56119;50.118;8.642;2024-02-23T08:03:12;3.45;;;1.02;;
69047;SDS011;56119;50.118;8.642;2024-02-23T08:05:38;4.35;;;1.08;;
69047;SDS011;56119;50.118;8.642;2024-02-23T08:08:04;5.45;;;1.23;;
69047;SDS011;56119;50.118;8.642;2024-02-23T08:10:31;6.65;;;1.48;;
69047;SDS011;56119;50.118;8.642;2024-02-23T08:12:58;7.07;;;1.40;;
69047;SDS011;56119;50.118;8.642;2024-02-23T08:15:24;6.75;;;1.20;;
69047;SDS011;56119;50.118;8.642;2024-02-23T08:17:50;4.18;;;1.30;;
69047;SDS011;56119;50.118;8.642;2024-02-23T08:20:16;5.45;;;1.13;;
69047;SDS011;56119;50.118;8.642;2024-02-23T08:22:42;7.22;;;1.13;;
69047;SDS011;56119;50.118;8.642;2024-02-23T08:25:09;6.65;;;1.20;;
69047;SDS011;56119;50.118;8.642;2024-02-23T08:27:35;5.72;;;1.30;;
69047;SDS011;56119;50.118;8.642;2024-02-23T08:30:01;5.07;;;1.13;;
69047;SDS011;56119;50.118;8.642;2024-02-23T08:32:27;5.28;;;1.55;;
69047;SDS011;56119;50.118;8.642;2024-02-23T08:34:53;6.28;;;1.27;;
69047;SDS011;56119;50.118;8.642;2024-02-23T08:37:24;7.32;;;1.40;;
69047;SDS011;56119;50.118;8.642;2024-02-23T08:39:50;5.72;;;1.33;;
69047;SDS011;56119;50.118;8.642;2024-02-23T08:42:16;5.45;;;1.30;;
69047;SDS011;56119;50.118;8.642;2024-02-23T08:44:42;6.30;;;1.15;;
69047;SDS011;56119;50.118;8.642;2024-02-23T08:47:08;8.80;;;1.42;;
69047;SDS011;56119;50.118;8.642;2024-02-23T08:49:34;6.70;;;1.65;;
69047;SDS011;56119;50.118;8.642;2024-02-23T08:51:59;8.35;;;1.40;;
69047;SDS011;56119;50.118;8.642;2024-02-23T08:54:27;4.60;;;1.50;;
69047;SDS011;56119;50.118;8.642;2024-02-23T08:56:53;8.63;;;1.40;;
69047;SDS011;56119;50.118;8.642;2024-02-23T08:59:19;6.47;;;1.17;;
69047;SDS011;56119;50.118;8.642;2024-02-23T09:01:45;8.13;;;1.05;;
69047;SDS011;56119;50.118;8.642;2024-02-23T09:04:11;9.48;;;1.50;;
69047;SDS011;56119;50.118;8.642;2024-02-23T09:06:37;7.75;;;1.60;;
69047;SDS011;56119;50.118;8.642;2024-02-23T09:09:03;7.82;;;1.50;;
69047;SDS011;56119;50.118;8.642;2024-02-23T09:11:29;8.35;;;1.83;;
69047;SDS011;56119;50.118;8.642;2024-02-23T09:13:55;5.47;;;1.55;;
69047;SDS011;56119;50.118;8.642;2024-02-23T09:16:21;5.30;;;1.13;;
69047;SDS011;56119;50.118;8.642;2024-02-23T09:18:49;8.80;;;1.30;;
69047;SDS011;56119;50.118;8.642;2024-02-23T09:21:15;10.57;;;1.60;;
69047;SDS011;56119;50.118;8.642;2024-02-23T09:23:41;4.75;;;1.20;;
69047;SDS011;56119;50.118;8.642;2024-02-23T09:26:10;9.82;;;1.63;;
69047;SDS011;56119;50.118;8.642;2024-02-23T09:28:37;7.47;;;1.40;;
69047;SDS011;56119;50.118;8.642;2024-02-23T09:31:03;6.80;;;1.38;;
69047;SDS011;56119;50.118;8.642;2024-02-23T09:33:29;7.28;;;1.60;;
69047;SDS011;56119;50.118;8.642;2024-02-23T09:35:56;7.53;;;1.20;;
69047;SDS011;56119;50.118;8.642;2024-02-23T09:38:22;6.22;;;1.45;;
69047;SDS011;56119;50.118;8.642;2024-02-23T09:40:49;6.07;;;1.10;;
69047;SDS011;56119;50.118;8.642;2024-02-23T09:43:15;7.95;;;1.30;;
69047;SDS011;56119;50.118;8.642;2024-02-23T09:45:42;5.53;;;1.65;;
69047;SDS011;56119;50.118;8.642;2024-02-23T09:48:08;6.00;;;1.30;;
69047;SDS011;56119;50.118;8.642;2024-02-23T09:50:37;6.55;;;1.48;;
69047;SDS011;56119;50.118;8.642;2024-02-23T09:53:04;6.75;;;1.08;;
69047;SDS011;56119;50.118;8.642;2024-02-23T09:55:31;6.80;;;1.00;;
69047;SDS011;56119;50.118;8.642;2024-02-23T09:57:57;8.23;;;1.42;;
69047;SDS011;56119;50.118;8.642;2024-02-23T10:00:24;5.65;;;1.45;;
69047;SDS011;56119;50.118;8.642;2024-02-23T10:02:50;8.45;;;1.70;;
69047;SDS011;56119;50.118;8.642;2024-02-23T10:05:16;4.95;;;1.40;;
69047;SDS011;56119;50.118;8.642;2024-02-23T10:07:42;8.48;;;1.63;;
69047;SDS011;56119;50.118;8.642;2024-02-23T10:10:09;6.75;;;1.65;;
69047;SDS011;56119;50.118;8.642;2024-02-23T10:12:38;7.07;;;1.50;;
69047;SDS011;56119;50.118;8.642;2024-02-23T10:15:04;8.27;;;1.50;;
69047;SDS011;56119;50.118;8.642;2024-02-23T10:17:31;8.40;;;1.48;;
69047;SDS011;56119;50.118;8.642;2024-02-23T10:19:58;7.25;;;1.55;;
69047;SDS011;56119;50.118;8.642;2024-02-23T10:22:24;7.25;;;1.30;;
69047;SDS011;56119;50.118;8.642;2024-02-23T10:24:50;6.18;;;1.35;;
69047;SDS011;56119;50.118;8.642;2024-02-23T10:27:17;10.52;;;1.38;;
69047;SDS011;56119;50.118;8.642;2024-02-23T10:29:43;7.75;;;1.63;;
69047;SDS011;56119;50.118;8.642;2024-02-23T10:32:10;8.30;;;1.20;;
69047;SDS011;56119;50.118;8.642;2024-02-23T10:34:39;7.35;;;1.30;;
69047;SDS011;56119;50.118;8.642;2024-02-23T10:37:08;6.45;;;1.10;;
69047;SDS011;56119;50.118;8.642;2024-02-23T10:39:37;5.18;;;1.25;;
69047;SDS011;56119;50.118;8.642;2024-02-23T10:42:04;6.32;;;1.50;;
69047;SDS011;56119;50.118;8.642;2024-02-23T10:44:30;4.65;;;1.42;;
69047;SDS011;56119;50.118;8.642;2024-02-23T10:46:57;7.35;;;1.15;;
69047;SDS011;56119;50.118;8.642;2024-02-23T10:49:24;6.60;;;1.17;;
69047;SDS011;56119;50.118;8.642;2024-02-23T10:51:54;7.03;;;1.42;;
69047;SDS011;56119;50.118;8.642;2024-02-23T10:54:21;4.35;;;1.25;;
69047;SDS011;56119;50.118;8.642;2024-02-23T10:56:49;9.50;;;1.30;;
69047;SDS011;56119;50.118;8.642;2024-02-23T10:59:15;7.07;;;1.25;;
69047;SDS011;56119;50.118;8.642;2024-02-23T11:01:44;7.13;;;1.27;;
69047;SDS011;56119;50.118;8.642;2024-02-23T11:04:10;5.38;;;1.25;;
69047;SDS011;56119;50.118;8.642;2024-02-23T11:06:36;7.07;;;1.30;;
69047;SDS011;56119;50.118;8.642;2024-02-23T11:09:08;6.32;;;1.38;;
69047;SDS011;56119;50.118;8.642;2024-02-23T11:11:38;6.18;;;1.25;;
69047;SDS011;56119;50.118;8.642;2024-02-23T11:14:07;8.60;;;1.45;;
69047;SDS011;56119;50.118;8.642;2024-02-23T11:16:38;9.00;;;1.55;;
69047;SDS011;56119;50.118;8.642;2024-02-23T11:19:05;6.78;;;1.17;;
69047;SDS011;56119;50.118;8.642;2024-02-23T11:21:35;7.38;;;1.60;;
69047;SDS011;56119;50.118;8.642;2024-02-23T11:24:04;8.05;;;1.35;;
69047;SDS011;56119;50.118;8.642;2024-02-23T11:26:30;5.68;;;1.25;;
69047;SDS011;56119;50.118;8.642;2024-02-23T11:29:08;7.25;;;1.50;;
69047;SDS011;56119;50.118;8.642;2024-02-23T11:31:35;7.68;;;1.63;;
69047;SDS011;56119;50.118;8.642;2024-02-23T11:34:01;5.82;;;1.15;;
69047;SDS011;56119;50.118;8.642;2024-02-23T11:36:27;8.85;;;1.42;;
69047;SDS011;56119;50.118;8.642;2024-02-23T11:38:54;8.10;;;1.40;;
69047;SDS011;56119;50.118;8.642;2024-02-23T11:41:21;7.30;;;1.48;;
69047;SDS011;56119;50.118;8.642;2024-02-23T11:43:47;8.68;;;1.50;;
69047;SDS011;56119;50.118;8.642;2024-02-23T11:46:14;4.93;;;1.23;;
69047;SDS011;56119;50.118;8.642;2024-02-23T11:48:41;9.80;;;1.40;;
69047;SDS011;56119;50.118;8.642;2024-02-23T11:51:08;7.00;;;1.30;;
69047;SDS011;56119;50.118;8.642;2024-02-23T11:53:34;5.40;;;1.33;;
69047;SDS011;56119;50.118;8.642;2024-02-23T11:56:00;8.57;;;1.58;;
69047;SDS011;56119;50.118;8.642;2024-02-23T11:58:26;9.45;;;1.65;;
69047;SDS011;56119;50.118;8.642;2024-02-23T12:00:52;5.10;;;1.23;;
69047;SDS011;56119;50.118;8.642;2024-02-23T12:03:18;6.95;;;1.17;;
69047;SDS011;56119;50.118;8.642;2024-02-23T12:05:45;5.43;;;1.00;;
69047;SDS011;56119;50.118;8.642;2024-02-23T12:08:11;3.25;;;1.10;;
69047;SDS011;56119;50.118;8.642;2024-02-23T12:10:37;4.05;;;0.85;;
69047;SDS011;56119;50.118;8.642;2024-02-23T12:13:03;5.07;;;1.27;;
69047;SDS011;56119;50.118;8.642;2024-02-23T12:15:29;7.53;;;1.50;;
69047;SDS011;56119;50.118;8.642;2024-02-23T12:17:57;6.88;;;1.33;;
69047;SDS011;56119;50.118;8.642;2024-02-23T12:20:25;8.75;;;1.65;;
69047;SDS011;56119;50.118;8.642;2024-02-23T12:22:51;6.47;;;1.70;;
69047;SDS011;56119;50.118;8.642;2024-02-23T12:25:21;5.05;;;1.30;;
69047;SDS011;56119;50.118;8.642;2024-02-23T12:27:53;7.22;;;1.52;;
69047;SDS011;56119;50.118;8.642;2024-02-23T12:30:19;4.85;;;1.23;;
69047;SDS011;56119;50.118;8.642;2024-02-23T12:32:45;5.38;;;1.50;;
69047;SDS011;56119;50.118;8.642;2024-02-23T12:35:11;4.85;;;1.33;;
69047;SDS011;56119;50.118;8.642;2024-02-23T12:37:37;3.55;;;1.20;;
69047;SDS011;56119;50.118;8.642;2024-02-23T12:40:04;7.13;;;1.60;;
69047;SDS011;56119;50.118;8.642;2024-02-23T12:42:30;6.15;;;1.65;;
69047;SDS011;56119;50.118;8.642;2024-02-23T12:44:56;5.97;;;1.23;;
69047;SDS011;56119;50.118;8.642;2024-02-23T12:47:22;4.72;;;1.30;;
69047;SDS011;56119;50.118;8.642;2024-02-23T12:49:48;7.10;;;1.42;;
69047;SDS011;56119;50.118;8.642;2024-02-23T12:52:14;7.68;;;1.40;;
69047;SDS011;56119;50.118;8.642;2024-02-23T12:54:40;5.28;;;1.10;;
69047;SDS011;56119;50.118;8.642;2024-02-23T12:57:07;7.32;;;1.42;;
69047;SDS011;56119;50.118;8.642;2024-02-23T12:59:32;4.05;;;1.10;;
69047;SDS011;56119;50.118;8.642;2024-02-23T13:01:59;5.38;;;1.20;;
69047;SDS011;56119;50.118;8.642;2024-02-23T13:04:25;8.63;;;1.60;;
69047;SDS011;56119;50.118;8.642;2024-02-23T13:06:51;3.53;;;1.20;;
69047;SDS011;56119;50.118;8.642;2024-02-23T13:09:18;6.45;;;1.50;;
69047;SDS011;56119;50.118;8.642;2024-02-23T13:11:44;3.60;;;1.13;;
69047;SDS011;56119;50.118;8.642;2024-02-23T13:14:12;5.45;;;1.65;;
69047;SDS011;56119;50.118;8.642;2024-02-23T13:16:38;7.60;;;1.65;;
69047;SDS011;56119;50.118;8.642;2024-02-23T13:19:04;4.57;;;1.20;;
69047;SDS011;56119;50.118;8.642;2024-02-23T13:21:30;5.15;;;1.52;;
69047;SDS011;56119;50.118;8.642;2024-02-23T13:23:57;5.22;;;1.52;;
69047;SDS011;56119;50.118;8.642;2024-02-23T13:26:23;6.85;;;1.10;;
69047;SDS011;56119;50.118;8.642;2024-02-23T13:28:49;6.85;;;1.30;;
69047;SDS011;56119;50.118;8.642;2024-02-23T13:31:16;6.38;;;1.15;;
69047;SDS011;56119;50.118;8.642;2024-02-23T13:33:42;4.45;;;1.00;;
69047;SDS011;56119;50.118;8.642;2024-02-23T13:36:10;4.47;;;1.00;;
69047;SDS011;56119;50.118;8.642;2024-02-23T13:38:36;3.55;;;1.10;;
69047;SDS011;56119;50.118;8.642;2024-02-23T13:41:04;5.45;;;1.17;;
69047;SDS011;56119;50.118;8.642;2024-02-23T13:43:30;4.05;;;1.00;;
69047;SDS011;56119;50.118;8.642;2024-02-23T13:45:58;6.28;;;1.17;;
69047;SDS011;56119;50.118;8.642;2024-02-23T13:48:24;4.10;;;1.20;;
69047;SDS011;56119;50.118;8.642;2024-02-23T13:50:50;3.45;;;1.23;;
69047;SDS011;56119;50.118;8.642;2024-02-23T13:53:16;6.47;;;1.15;;
69047;SDS011;56119;50.118;8.642;2024-02-23T13:55:42;6.55;;;1.10;;
69047;SDS011;56119;50.118;8.642;2024-02-23T13:58:09;4.63;;;0.95;;
69047;SDS011;56119;50.118;8.642;2024-02-23T14:00:35;7.05;;;1.30;;
69047;SDS011;56119;50.118;8.642;2024-02-23T14:03:01;4.78;;;1.23;;
69047;SDS011;56119;50.118;8.642;2024-02-23T14:05:27;2.38;;;0.77;;
69047;SDS011;56119;50.118;8.642;2024-02-23T14:07:53;4.60;;;1.10;;
69047;SDS011;56119;50.118;8.642;2024-02-23T14:10:19;4.28;;;1.08;;
69047;SDS011;56119;50.118;8.642;2024-02-23T14:12:45;4.22;;;1.30;;
69047;SDS011;56119;50.118;8.642;2024-02-23T14:15:11;3.95;;;1.00;;
69047;SDS011;56119;50.118;8.642;2024-02-23T14:17:37;5.35;;;1.05;;
69047;SDS011;56119;50.118;8.642;2024-02-23T14:20:03;3.17;;;1.02;;
69047;SDS011;56119;50.118;8.642;2024-02-23T14:22:30;3.80;;;0.80;;
69047;SDS011;56119;50.118;8.642;2024-02-23T14:24:56;5.55;;;1.00;;
69047;SDS011;56119;50.118;8.642;2024-02-23T14:27:23;3.45;;;1.08;;
69047;SDS011;56119;50.118;8.642;2024-02-23T14:29:49;4.90;;;1.42;;
69047;SDS011;56119;50.118;8.642;2024-02-23T14:32:16;4.60;;;1.30;;
69047;SDS011;56119;50.118;8.642;2024-02-23T14:34:42;3.08;;;0.95;;
69047;SDS011;56119;50.118;8.642;2024-02-23T14:37:08;4.40;;;1.20;;
69047;SDS011;56119;50.118;8.642;2024-02-23T14:39:34;5.72;;;1.50;;
69047;SDS011;56119;50.118;8.642;2024-02-23T14:42:00;5.30;;;1.27;;
69047;SDS011;56119;50.118;8.642;2024-02-23T14:44:27;3.67;;;1.08;;